メインページ
METAR-TAF:

METAR-TAF

空港 :

アンカラ-エセンボーア, トルコ

エセンボーア国際空港

緯度: 40-07N, 経度: 032-59E, 海抜: 953m

現時点の気象観測

当レポートは31分前の18:50(UTC)に作成
南/南東の風 3kt、東/南東から西/南西の間で変化する
気温 2°C
湿度 69%
気圧 1010 hPa
視程10km以上
高度4000ftの雲は散在している

METAR: LTAC 251850Z 15003KT 120V250 9999 SCT040 02/M03 Q1010 NOSIG RMK RWY21L VRB02KT RWY03L VRB01KT RWY21R 10003KT 030V140

時間: 22:21 (19:21 UTC)

予報

当レポートは2時間41分前の16:40(UTC)に作成
予報は25日の 18時(UTC)から 26日の 18時(UTC)まで有効
変向風 2kt
視程10km以上
高度4000ftの雲は散在している
26日の 14時(UTC)から 26日の 18時(UTC)まで一時的に
南/南東の風 12kt
高度2500ftの雲はほとんどない, 積乱雲.
高度3000ftの千切れ雲あり
弱いにわか雨

TAF: LTAC 251640Z 2518/2618 VRB02KT 9999 SCT040 TEMPO 2614/2618 15012KT -SHRA FEW025CB BKN030

4,000以上の空港の気象観測と天気予報(METAR報とTAF報)

利用可能な観測所は地図上に黄色い丸と赤い丸で示す。

丸の上にカーソルを重ねると観測所名を参照できる。

次にクリックすると気象観測と天気予報を参照できる。

マップの切り替え:黒色「×」印の緑ボタンをクリックして拡大、「-」印の緑ボタンをクリックして縮小、緑色の三角印をクリックして隣りの地図に切り替え


METAR-TAF: